Pos FirstName LastName Race No Finish Status Time Category Code Categ Pos Gender Club Swim Swim_PENALTY Swim_PACE_FROMPREVLEG SwimOverallPos SwimCategPos SwimGenderPos T1 T1_PENALTY T1_PACE_FROMPREVLEG T1OverallPos T1CategPos T1GenderPos Cycle Cycle_PENALTY Cycle_PACE_FROMPREVLEG CycleOverallPos CycleCategPos CycleGenderPos T2 T2_PENALTY T2_PACE_FROMPREVLEG T2OverallPos T2CategPos T2GenderPos Run Run_PENALTY Run_PACE_FROMPREVLEG RunOverallPos RunCategPos RunGenderPos
1 John Whitworth 365 Finished 01:01:31 2529 1 Male   00:06:39   1:39 sec/100m 21 2 18 00:00:45   m/hr 35 2 32 00:36:59   26.0 m/hr 1 1 1 00:00:31   18 1 15 00:16:35   5:31 min/m 2 1 1
2 Tim Downing 353 Finished 01:01:31 2529 2 Male Cambridge tri club 00:05:41   1:25 sec/100m 6 1 5 00:00:31   m/hr 9 1 9 00:38:07   25.2 m/hr 4 2 4 00:00:33   31 2 26 00:16:37   5:32 min/m 3 2 2
3 Charlie Palmer 347 Finished 01:02:46 3034 1 Male TRANSITION CYCLES 00:06:59   1:44 sec/100m 39 4 35 00:00:30   m/hr 7 1 7 00:37:36   25.5 m/hr 2 1 2 00:00:30   14 2 12 00:17:08   5:42 min/m 5 1 4
4 Joshua Butler 351 Finished 01:03:14 2024 1 Male Star Rowing 00:06:10   1:32 sec/100m 12 1 10 00:00:35   m/hr 15 2 14 00:37:46   25.4 m/hr 3 1 3 00:00:30   13 2 11 00:18:11   6:03 min/m 11 2 10
5 David Glossy 359 Finished 01:03:54 3539 1 Male phil corley blue tri 00:06:07   1:31 sec/100m 10 1 8 00:00:28   m/hr 1 1 1 00:38:41   24.8 m/hr 5 1 5 00:00:37   56 5 47 00:17:59   5:59 min/m 8 1 7
6 Pete Eggleston 320 Finished 01:05:08 4044 1 Male Tri-Force 00:06:51   1:42 sec/100m 30 6 26 00:00:41   m/hr 25 7 23 00:38:48   24.7 m/hr 6 1 6 00:00:41   81 16 65 00:18:05   6:01 min/m 10 1 9
7 Kieron Lewis 346 Finished 01:05:29 4044 2 Male Team MK 00:06:32   1:38 sec/100m 17 2 15 00:00:30   m/hr 6 1 6 00:39:34   24.3 m/hr 9 2 9 00:00:33   35 7 29 00:18:18   6:06 min/m 12 2 11
8 Tom Stead 337 Finished 01:05:51 1516 1 Male NiceTri 00:06:51   1:42 sec/100m 29 4 25 00:00:29   m/hr 3 2 3 00:39:56   24.0 m/hr 11 1 11 00:00:30   11 2 9 00:18:04   6:01 min/m 9 2 8
9 Ian Mackerness 362 Finished 01:06:28 4549 1 Male Team Trisports 00:06:09   1:32 sec/100m 11 2 9 00:00:30   m/hr 4 1 4 00:40:30   23.7 m/hr 14 1 14 00:00:33   29 4 24 00:18:45   6:15 min/m 19 2 18
10 Antony Brown 311 Finished 01:06:54 5054 1 Male   00:06:57   1:44 sec/100m 37 1 33 00:00:39   m/hr 19 1 18 00:39:30   24.3 m/hr 8 1 8 00:00:40   75 4 61 00:19:07   6:22 min/m 28 1 26
11 Alan Clark 315 Finished 01:07:38 4044 3 Male B2P 00:06:42   1:40 sec/100m 23 5 20 00:00:52   m/hr 58 16 53 00:40:40   23.6 m/hr 16 4 16 00:00:36   48 12 41 00:18:46   6:15 min/m 20 5 19
12 Connor Delaney 352 Finished 01:07:54 1516 2 Male Cambridge Tri 00:05:12   1:18 sec/100m 1 1 1 00:00:28   m/hr 2 1 2 00:44:21   21.6 m/hr 48 2 47 00:00:47   126 8 98 00:17:04   5:41 min/m 4 1 3
13 Jamie Bishop 158 Finished 01:08:24 3539 2 Male   00:07:48   1:57 sec/100m 86 10 75 00:00:31   m/hr 8 2 8 00:40:25   23.7 m/hr 12 3 12 00:00:32   25 2 21 00:19:07   6:22 min/m 27 2 25
14 Dan Stuart 338 Finished 01:09:28 3034 2 Male EETC 00:07:10   1:47 sec/100m 50 8 45 00:00:40   m/hr 24 2 22 00:40:36   23.6 m/hr 15 3 15 00:01:03   219 21 161 00:19:56   6:38 min/m 45 6 41
15 Alasdair Bruce 356 Finished 01:09:28 4044 4 Male Stortford Tri 00:06:33   1:38 sec/100m 18 3 16 00:00:33   m/hr 12 3 12 00:41:23   23.2 m/hr 19 7 19 00:00:35   43 10 36 00:20:22   6:47 min/m 57 14 52
16 Richard Boley 275 Finished 01:09:29 4044 5 Male Hemel Hempstead CC 00:07:53   1:58 sec/100m 96 23 82 00:00:41   m/hr 28 8 25 00:41:01   23.4 m/hr 17 5 17 00:00:28   3 1 3 00:19:24   6:28 min/m 32 7 30
17 David Hall 323 Finished 01:09:30 4549 2 Male   00:07:08   1:47 sec/100m 46 5 41 00:00:59   m/hr 82 11 69 00:41:41   23.0 m/hr 23 3 23 00:00:45   114 15 90 00:18:54   6:18 min/m 23 3 22
18 Richard Hanley 286 Finished 01:09:44 4044 6 Male Hadleigh Hares AC 00:07:09   1:47 sec/100m 47 13 42 00:00:52   m/hr 56 15 52 00:41:10   23.3 m/hr 18 6 18 00:00:35   44 11 37 00:19:56   6:38 min/m 43 10 39
19 David Wagstaff 306 Finished 01:10:01 4549 3 Male pactrac 00:07:06   1:46 sec/100m 44 4 40 00:00:42   m/hr 31 4 28 00:41:29   23.1 m/hr 20 2 20 00:00:34   39 5 33 00:20:09   6:43 min/m 51 4 47
20 Joe Swithenby 303 Finished 01:10:07 2024 2 Male   00:07:23   1:50 sec/100m 65 6 57 00:00:57   m/hr 70 3 62 00:44:06   21.8 m/hr 42 4 42 00:00:25   1 1 1 00:17:14   5:44 min/m 6 1 5
21 Simon Gilbert 284 Finished 01:10:14 2024 3 Male Cambridge University 00:07:45   1:56 sec/100m 83 8 72 00:00:58   m/hr 75 4 66 00:41:45   23.0 m/hr 24 2 24 00:01:06   229 10 169 00:18:38   6:12 min/m 18 3 17
22 Albert Maher 331 Finished 01:10:21 3539 3 Male none 00:07:30   1:52 sec/100m 72 8 62 00:00:41   m/hr 27 6 24 00:39:15   24.5 m/hr 7 2 7 00:00:42   87 9 71 00:22:12   7:24 min/m 118 15 100
23 Martin Heaton 253 Finished 01:10:21 4044 7 Male Team Milton Keynes 00:08:54   2:13 sec/100m 171 35 136 00:01:15   m/hr 145 27 117 00:40:27   23.7 m/hr 13 3 13 00:01:16   255 39 189 00:18:27   6:09 min/m 13 3 12
24 Gavin Parsons 348 Finished 01:10:27 3034 3 Male   00:06:23   1:35 sec/100m 15 1 13 00:00:47   m/hr 44 3 41 00:44:02   21.8 m/hr 39 5 39 00:00:43   96 9 79 00:18:30   6:10 min/m 15 2 14
25 Colin Bradley 310 Finished 01:10:53 4044 8 Male LBTri 00:06:54   1:43 sec/100m 32 8 28 00:00:32   m/hr 10 2 10 00:42:31   22.6 m/hr 27 9 27 00:00:33   34 6 28 00:20:21   6:47 min/m 56 13 51
26 Stuart Warren 153 Finished 01:11:16 4044 9 Male Northants Tri 00:07:47   1:56 sec/100m 84 20 73 00:00:41   m/hr 30 9 27 00:41:35   23.1 m/hr 21 8 21 00:00:34   37 8 31 00:20:37   6:52 min/m 67 16 61
27 Jonathan Gillham 322 Finished 01:11:18 3539 4 Male Freedom Tri 00:06:35   1:38 sec/100m 20 4 17 00:00:35   m/hr 13 4 13 00:43:30   22.1 m/hr 33 6 33 00:00:39   67 7 54 00:19:57   6:39 min/m 46 6 42
28 Stuart Woodruff 350 Finished 01:11:31 4044 10 Male Olney Multisport 00:06:55   1:43 sec/100m 35 9 31 00:00:37   m/hr 16 4 15 00:44:07   21.8 m/hr 44 14 44 00:00:32   24 5 20 00:19:17   6:25 min/m 31 6 29
29 Edward Moffett 293 Finished 01:11:41 2024 4 Male Cambridge Triathlon 00:06:49   1:42 sec/100m 27 4 24 00:00:30   m/hr 5 1 5 00:44:55   21.4 m/hr 55 7 53 00:00:32   22 3 18 00:18:53   6:17 min/m 22 4 21
30 Martin Cook 162 Finished 01:11:43 3034 4 Male East Essex Tri Club 00:08:46   2:11 sec/100m 159 20 128 00:00:58   m/hr 74 7 65 00:42:18   22.7 m/hr 25 4 25 00:00:40   76 7 62 00:18:59   6:19 min/m 25 5 24
31 Geoff Cooper 317 Finished 01:11:44 5054 2 Male Bedford Harriers AC 00:07:19   1:49 sec/100m 59 2 52 00:00:48   m/hr 48 3 45 00:41:41   23.0 m/hr 22 2 22 00:00:36   49 3 42 00:21:18   7:06 min/m 84 6 74
32 Nathan Thompson 101 Finished 01:11:56 3034 5 Male Cambridge Cycle Club 00:09:08   2:17 sec/100m 185 22 146 00:01:09   m/hr 117 12 97 00:39:39   24.2 m/hr 10 2 10 00:00:40   74 6 60 00:21:18   7:06 min/m 83 11 73
33 Bradley Morris 294 Finished 01:12:22 2024 5 Male   00:06:44   1:41 sec/100m 25 3 22 00:01:05   m/hr 107 6 88 00:44:24   21.6 m/hr 49 5 48 00:00:39   66 5 53 00:19:28   6:29 min/m 34 5 32
34 Jon Brett 355 Finished 01:12:39 4549 4 Male Trent Park 00:05:52   1:28 sec/100m 8 1 7 00:00:47   m/hr 43 6 40 00:43:36   22.0 m/hr 36 4 36 00:00:49   139 18 107 00:21:33   7:11 min/m 97 10 84
35 Matthew Clark 161 Finished 01:12:40 3539 5 Male   00:08:16   2:04 sec/100m 124 16 103 00:00:41   m/hr 29 7 26 00:43:09   22.2 m/hr 32 5 32 00:00:33   30 4 25 00:20:00   6:40 min/m 49 8 45
36 George Butler 313 Finished 01:13:09 4044 11 Male   00:07:06   1:46 sec/100m 43 12 39 00:00:42   m/hr 32 10 29 00:45:55   20.9 m/hr 69 18 64 00:00:52   161 27 119 00:18:33   6:11 min/m 17 4 16
37 Matt Ward 188 Finished 01:13:13 2529 3 Male   00:09:37   2:24 sec/100m 214 13 166 00:00:46   m/hr 40 4 37 00:44:06   21.8 m/hr 41 3 41 00:00:45   111 8 88 00:17:57   5:59 min/m 7 3 6
38 Kathryn Berry 342 Finished 01:13:18 2529 1 Female Absolute Tri RT 00:05:56   1:29 sec/100m 9 1 2 00:00:35   m/hr 14 1 1 00:44:43   21.5 m/hr 52 1 2 00:00:31   21 1 4 00:21:31   7:10 min/m 96 2 13
39 Michael Semark 301 Finished 01:13:23 4549 5 Male Trent Park Running C 00:07:20   1:50 sec/100m 61 7 54 00:00:40   m/hr 23 3 21 00:44:04   21.8 m/hr 40 5 40 00:00:41   79 11 64 00:20:36   6:52 min/m 65 7 59
40 Matthew Cotton 318 Finished 01:13:26 2024 6 Male   00:06:42   1:40 sec/100m 24 2 21 00:01:06   m/hr 110 8 91 00:44:52   21.4 m/hr 54 6 52 00:00:58   195 9 143 00:19:46   6:35 min/m 41 6 37
41 Annie Wilson 367 Finished 01:13:32 4549 1 Female   00:05:32   1:23 sec/100m 3 1 1 00:00:41   m/hr 26 1 3 00:46:03   20.8 m/hr 74 1 6 00:00:35   42 1 7 00:20:40   6:53 min/m 69 1 7
42 Mike Furby 358 Finished 01:13:33 4044 12 Male Bedford Harriers 00:06:40   1:40 sec/100m 22 4 19 00:00:46   m/hr 39 14 36 00:44:14   21.7 m/hr 46 16 46 00:00:42   91 18 75 00:21:08   7:02 min/m 77 21 68
43 Charlotte Saunders 300 Finished 01:13:33 3034 1 Female   00:07:26   1:51 sec/100m 67 3 9 00:00:56   m/hr 63 2 7 00:45:14   21.2 m/hr 61 1 3 00:00:51   154 7 40 00:19:05   6:21 min/m 26 1 2
44 Jayne Williams 271 Finished 01:13:58 3539 1 Female Ipswich Tri 00:08:01   2:00 sec/100m 105 2 17 00:01:11   m/hr 127 5 24 00:44:20   21.7 m/hr 47 1 1 00:00:47   130 8 29 00:19:37   6:32 min/m 37 1 3
45 Matt Quinn 298 Finished 01:14:04 3539 6 Male Team MK 00:07:50   1:57 sec/100m 90 11 78 00:01:01   m/hr 92 13 77 00:42:55   22.4 m/hr 31 4 31 00:00:47   125 13 97 00:21:30   7:10 min/m 94 10 82
46 James Harper 360 Finished 01:14:08 1718 1 Male Tri Force 00:05:37   1:24 sec/100m 4 2 3 00:00:48   m/hr 46 1 43 00:47:28   20.2 m/hr 97 2 91 00:00:30   12 1 10 00:19:44   6:34 min/m 40 1 36
47 Phil Crouch 245 Finished 01:14:23 5559 1 Male   00:08:23   2:05 sec/100m 132 3 109 00:00:47   m/hr 41 1 38 00:42:25   22.6 m/hr 26 1 26 00:00:34   40 1 34 00:22:12   7:24 min/m 119 2 101
48 Martyn Wisken 190 Finished 01:14:33 4044 13 Male Hemel Hempstead CC 00:08:33   2:08 sec/100m 145 30 119 00:00:39   m/hr 18 5 17 00:44:08   21.7 m/hr 45 15 45 00:00:34   38 9 32 00:20:38   6:52 min/m 68 17 62
49 Adrian Barbrooke 274 Finished 01:14:34 3539 7 Male West Suffolk W & Tri 00:07:15   1:48 sec/100m 55 6 48 00:00:32   m/hr 11 3 11 00:47:01   20.4 m/hr 92 10 86 00:00:32   27 3 23 00:19:10   6:23 min/m 29 3 27
50 Robert Butler 243 Finished 01:14:36 5054 3 Male Bedford Harriers 00:08:49   2:12 sec/100m 163 10 131 00:00:47   m/hr 45 2 42 00:42:40   22.5 m/hr 29 3 29 00:00:50   143 7 110 00:21:28   7:09 min/m 91 8 80
51 Simon Fisher 250 Finished 01:15:00 5054 4 Male Bedford Harriers 00:07:56   1:59 sec/100m 99 4 85 00:01:01   m/hr 91 6 76 00:45:36   21.0 m/hr 65 9 60 00:00:55   177 9 130 00:19:31   6:30 min/m 36 2 34
52 James Wilson 308 Finished 01:15:01 2529 4 Male BCTTT 00:07:10   1:47 sec/100m 48 3 43 00:01:08   m/hr 114 9 94 00:44:55   21.4 m/hr 56 5 54 00:01:14   252 15 187 00:20:32   6:50 min/m 61 6 55
53 Matthew Pickett 219 Finished 01:15:05 3539 8 Male East Essex Tri 00:08:13   2:03 sec/100m 117 15 99 00:00:51   m/hr 53 9 49 00:45:41   21.0 m/hr 66 7 61 00:00:51   152 16 114 00:19:28   6:29 min/m 33 5 31
54 John Juckes 257 Finished 01:15:31 5054 5 Male Cambridge 00:08:13   2:03 sec/100m 118 5 100 00:01:00   m/hr 86 4 71 00:42:50   22.4 m/hr 30 4 30 00:00:49   138 6 106 00:22:38   7:32 min/m 142 11 122
55 Pete Binks 235 Finished 01:15:34 4044 14 Male Stortford Tri 00:08:34   2:08 sec/100m 147 31 121 00:00:39   m/hr 20 6 19 00:44:26   21.6 m/hr 50 17 49 00:00:42   92 19 76 00:21:11   7:03 min/m 79 23 70
56 Nick Humphrey 287 Finished 01:15:43 4044 15 Male   00:06:58   1:44 sec/100m 38 10 34 00:01:37   m/hr 197 37 156 00:43:59   21.8 m/hr 38 13 38 00:01:13   249 37 184 00:21:55   7:18 min/m 107 27 91
57 Toby Willson 366 Finished 01:15:50 1718 2 Male   00:05:30   1:22 sec/100m 2 1 2 00:01:26   m/hr 159 4 128 00:46:28   20.7 m/hr 79 1 73 00:00:41   84 3 68 00:21:44   7:14 min/m 100 2 86
58 Mark Children 198 Finished 01:15:53 2529 5 Male   00:07:53   1:58 sec/100m 97 6 83 00:00:47   m/hr 42 5 39 00:45:00   21.3 m/hr 58 6 56 00:00:47   132 11 103 00:21:24   7:08 min/m 88 8 78
59 Mick Case 134 Finished 01:15:57 4044 16 Male BRCC 00:09:02   2:15 sec/100m 181 36 143 00:00:57   m/hr 66 18 58 00:43:36   22.0 m/hr 37 12 37 00:00:40   73 15 59 00:21:40   7:13 min/m 99 26 85
60 Maxine Burgess 240 Finished 01:15:57 3539 2 Female newmarket tri club 00:08:14   2:03 sec/100m 121 4 20 00:00:40   m/hr 22 1 2 00:45:24   21.1 m/hr 62 2 4 00:00:38   59 3 11 00:20:59   6:59 min/m 74 3 9
61 Hannah Cooke 316 Finished 01:16:02 3034 2 Female Cambridge Triathlon 00:06:33   1:38 sec/100m 19 1 3 00:00:52   m/hr 57 1 5 00:47:35   20.2 m/hr 100 2 7 00:00:51   155 8 41 00:20:09   6:43 min/m 52 3 5
62 James Tate 304 Finished 01:16:04 2529 6 Male   00:07:13   1:48 sec/100m 54 4 47 00:01:01   m/hr 96 8 80 00:44:07   21.8 m/hr 43 4 43 00:00:40   71 4 57 00:23:01   7:40 min/m 152 11 128
63 Simon Hobday 144 Finished 01:16:06 5054 6 Male   00:08:42   2:10 sec/100m 155 8 125 00:01:04   m/hr 104 8 85 00:45:04   21.3 m/hr 60 8 58 00:01:18   260 17 194 00:19:56   6:38 min/m 44 3 40
64 Chris Carradice 276 Finished 01:16:09 4044 17 Male Triforce 00:07:24   1:51 sec/100m 66 16 58 00:00:44   m/hr 34 12 31 00:46:13   20.8 m/hr 75 20 69 00:00:48   135 24 104 00:20:58   6:59 min/m 72 18 64
65 Alan Findlay 249 Finished 01:16:28 4549 6 Male Stortford Tri 00:07:12   1:48 sec/100m 53 6 46 00:00:39   m/hr 21 2 20 00:45:31   21.1 m/hr 64 7 59 00:00:36   47 6 40 00:22:28   7:29 min/m 136 17 117
66 Ashley Stewart 185 Finished 01:16:47 3034 6 Male   00:07:50   1:57 sec/100m 89 11 77 00:01:01   m/hr 97 9 81 00:48:54   19.6 m/hr 134 19 121 00:00:29   6 1 6 00:18:32   6:10 min/m 16 3 15
67 Steve Bird 192 Finished 01:17:14 4549 7 Male Tri Anglia 00:08:21   2:05 sec/100m 128 12 106 00:00:59   m/hr 83 12 70 00:46:48   20.5 m/hr 84 12 78 00:00:29   7 2 7 00:20:35   6:51 min/m 62 6 56
68 Mary Twitchett 228 Finished 01:17:17 5054 1 Female Cambridge Triathlon 00:09:17   2:19 sec/100m 197 2 44 00:00:49   m/hr 50 1 4 00:45:28   21.1 m/hr 63 1 5 00:00:45   110 1 23 00:20:56   6:58 min/m 71 1 8
69 Mark Taplin 226 Finished 01:17:22 4549 8 Male Tri-Force 00:09:04   2:16 sec/100m 182 17 144 00:01:48   m/hr 219 30 169 00:47:00   20.4 m/hr 91 14 85 00:00:59   199 22 146 00:18:29   6:09 min/m 14 1 13
70 John Woollatt 234 Finished 01:17:27 5054 7 Male Cambridge Triathlon 00:07:32   1:53 sec/100m 74 3 64 00:01:30   m/hr 173 12 139 00:47:07   20.4 m/hr 93 10 87 00:00:52   163 8 120 00:20:24   6:48 min/m 58 4 53
71 Chris Goldsmith 252 Finished 01:17:33 4044 18 Male   00:07:47   1:56 sec/100m 85 21 74 00:01:31   m/hr 179 31 143 00:42:38   22.5 m/hr 28 10 28 00:00:46   117 23 93 00:24:49   8:16 min/m 204 40 167
72 Simon Foster 282 Finished 01:17:35 4044 19 Male Bedford Traktors 00:07:21   1:50 sec/100m 63 15 55 00:01:23   m/hr 155 30 124 00:45:58   20.9 m/hr 72 19 67 00:01:41   289 43 212 00:21:11   7:03 min/m 78 22 69
73 Connor Hayward 71 Finished 01:17:41 1516 3 Male BRCC 00:08:26   2:06 sec/100m 137 7 114 00:00:57   m/hr 72 4 64 00:46:34   20.6 m/hr 81 3 75 00:01:00   203 9 150 00:20:42   6:54 min/m 70 3 63
74 Leigh Pilgrim 263 Finished 01:17:43 2529 7 Male Boxfit 00:08:50   2:12 sec/100m 167 8 134 00:00:45   m/hr 37 3 34 00:48:43   19.7 m/hr 124 9 113 00:00:33   36 3 30 00:18:50   6:16 min/m 21 4 20
75 Simon Patenall 262 Finished 01:17:50 4044 20 Male Cambridge Triathlon 00:07:48   1:57 sec/100m 87 22 76 00:01:06   m/hr 108 23 89 00:43:35   22.0 m/hr 35 11 35 00:00:44   106 21 85 00:24:35   8:11 min/m 200 38 164
76 Pete Buckingham 106 Finished 01:17:52 5054 8 Male   00:10:34   2:38 sec/100m 254 16 198 00:01:01   m/hr 95 7 79 00:44:57   21.3 m/hr 57 6 55 00:00:43   98 5 80 00:20:35   6:51 min/m 63 5 57
77 Howard Williams 400 Finished 01:18:00 4549 9 Male Walden Tri 00:08:08   2:02 sec/100m 112 10 95 00:00:57   m/hr 69 10 61 00:45:43   21.0 m/hr 67 8 62 00:00:46   115 16 91 00:22:25   7:28 min/m 133 16 114
78 MicheŠl Brogan 238 Finished 01:18:18 4044 21 Male Trent Park RC 00:08:23   2:05 sec/100m 130 26 108 00:00:59   m/hr 79 19 67 00:48:05   20.0 m/hr 111 27 104 00:00:38   61 14 49 00:20:11   6:43 min/m 54 12 49
79 Rob Davis 357 Finished 01:18:20 4044 22 Male Cambridge Triathlon 00:05:44   1:26 sec/100m 7 1 6 00:01:10   m/hr 120 24 99 00:49:26   19.4 m/hr 150 30 133 00:00:59   201 33 148 00:20:59   6:59 min/m 73 19 65
80 Ashley Meggitt 215 Finished 01:18:29 4549 10 Male Cambridge tri club 00:08:41   2:10 sec/100m 154 16 124 00:01:10   m/hr 119 15 98 00:45:52   20.9 m/hr 68 9 63 00:00:42   90 13 74 00:22:02   7:20 min/m 112 13 95
81 Steve Macrae 290 Finished 01:18:36 3034 7 Male Unafilliated 00:07:20   1:50 sec/100m 60 9 53 00:02:51   m/hr 286 28 215 00:47:59   20.0 m/hr 108 11 101 00:01:29   280 28 207 00:18:55   6:18 min/m 24 4 23
82 Ian Sheret 223 Finished 01:18:39 3034 8 Male Clash of the Tritans 00:07:54   1:58 sec/100m 98 13 84 00:00:48   m/hr 47 4 44 00:48:03   20.0 m/hr 110 13 103 00:00:36   46 4 39 00:21:15   7:05 min/m 81 10 71
83 Matthew Houlden 254 Finished 01:18:41 3539 9 Male Tri-Force 00:07:17   1:49 sec/100m 58 7 51 00:01:52   m/hr 226 29 175 00:46:20   20.7 m/hr 78 8 72 00:00:54   175 21 129 00:22:16   7:25 min/m 123 16 105
84 Stephen Dicks 85 Finished 01:18:49 3539 10 Male Team MK 00:10:06   2:31 sec/100m 237 27 186 00:00:51   m/hr 54 10 50 00:47:10   20.3 m/hr 94 11 88 00:00:39   65 6 52 00:20:02   6:40 min/m 50 9 46
85 Pete Mealing 332 Finished 01:18:51 3034 9 Male Bedford Harriers AC 00:07:21   1:50 sec/100m 64 10 56 00:00:57   m/hr 71 6 63 00:49:22   19.4 m/hr 147 20 130 00:00:43   102 10 83 00:20:26   6:48 min/m 59 8 54
86 Jonathan Taylor 305 Finished 01:18:56 4044 23 Male Team MK 00:07:42   1:55 sec/100m 80 19 70 00:01:00   m/hr 87 20 72 00:46:53   20.5 m/hr 89 24 83 00:01:07   232 34 172 00:22:12   7:24 min/m 120 29 102
87 Neil Adams 354 Finished 01:18:56 4044 24 Male   00:08:36   2:09 sec/100m 150 32 123 00:01:34   m/hr 190 34 152 00:47:51   20.1 m/hr 107 26 100 00:01:23   273 41 204 00:19:31   6:30 min/m 35 8 33
88 Matt Bowmer 194 Finished 01:19:04 4549 11 Male Bedford traktors tri 00:09:10   2:17 sec/100m 190 18 149 00:00:51   m/hr 55 8 51 00:46:17   20.7 m/hr 77 11 71 00:00:42   95 14 78 00:22:02   7:20 min/m 111 12 94
89 Hugo Mcglue 291 Finished 01:19:08 3034 10 Male Team MK 00:08:16   2:04 sec/100m 122 16 102 00:00:59   m/hr 80 8 68 00:45:57   20.9 m/hr 70 6 65 00:01:19   265 26 198 00:20:36 +00:02:00 6:52 min/m 64 9 58
90 Simon Moore 119 Finished 01:19:11 3539 11 Male   00:09:09   2:17 sec/100m 188 22 148 00:01:51   m/hr 225 28 174 00:47:42   20.1 m/hr 101 14 94 00:00:28   4 1 4 00:19:58   6:39 min/m 47 7 43
91 Philip Timewell 186 Finished 01:19:12 3034 11 Male   00:08:01   2:00 sec/100m 107 15 90 00:01:14   m/hr 138 15 111 00:46:14   20.8 m/hr 76 7 70 00:00:59   200 19 147 00:22:42   7:34 min/m 145 18 124
92 Luke Edmonds 344 Finished 01:19:15 3539 12 Male   00:06:11   1:32 sec/100m 13 2 11 00:01:08   m/hr 113 15 93 00:49:15   19.5 m/hr 143 18 127 00:00:56   181 22 134 00:21:44   7:14 min/m 101 11 87
93 Michael Maldar 259 Finished 01:19:26 3034 12 Male   00:07:00   1:45 sec/100m 41 5 37 00:01:53   m/hr 231 23 179 00:47:31   20.2 m/hr 98 10 92 00:00:47   129 13 101 00:22:13   7:24 min/m 121 13 103
94 Simon Herbert 325 Finished 01:19:27 4044 25 Male   00:07:15   1:48 sec/100m 56 14 49 00:01:11   m/hr 130 25 106 00:50:29   19.0 m/hr 174 35 154 00:00:45   109 22 87 00:19:44   6:34 min/m 39 9 35
95 Shaun Murphy 260 Finished 01:19:29 4044 26 Male   00:07:30   1:52 sec/100m 73 18 63 00:00:53   m/hr 61 17 55 00:49:30   19.4 m/hr 151 31 134 00:01:35   286 42 209 00:19:59   6:39 min/m 48 11 44
96 David Molony 177 Finished 01:19:34 2024 7 Male   00:08:05   2:01 sec/100m 109 11 92 00:02:35   m/hr 280 13 210 00:43:35   22.0 m/hr 34 3 34 00:01:54   290 14 213 00:23:24   7:48 min/m 167 10 138
97 Hugh Maltby 175 Finished 01:19:35 4549 12 Male   00:07:41   1:55 sec/100m 78 8 68 00:01:02   m/hr 100 13 82 00:45:58   20.9 m/hr 71 10 66 00:01:00   210 25 156 00:23:53   7:57 min/m 178 23 147
98 Ian Swannell 43 Finished 01:19:35 3539 13 Male   00:10:46   2:41 sec/100m 263 33 204 00:01:30   m/hr 172 22 138 00:47:23   20.3 m/hr 96 12 90 00:00:43   99 10 81 00:19:11   6:23 min/m 30 4 28
99 Davina Rutledge 222 Finished 01:19:36 3034 3 Female RAF Tri 00:08:50   2:12 sec/100m 165 7 33 00:01:01   m/hr 98 4 17 00:49:16   19.5 m/hr 145 4 17 00:00:46   120 4 26 00:19:41   6:33 min/m 38 2 4
100 Will Porter 297 Finished 01:19:51 3034 13 Male   00:06:57   1:44 sec/100m 36 3 32 00:00:55   m/hr 62 5 56 00:46:56   20.4 m/hr 90 9 84 00:01:10   241 24 178 00:23:51   7:57 min/m 177 22 146
101 Stuart Meiklejohn 117 Finished 01:19:55 3034 14 Male serpentine 00:09:43   2:25 sec/100m 221 25 172 00:01:14   m/hr 139 16 112 00:47:59   20.0 m/hr 109 12 102 00:00:47   128 12 100 00:20:10   6:43 min/m 53 7 48
102 Judith Robinson 299 Finished 01:19:56 2024 1 Female Oxford Uni Triathlon 00:07:27   1:51 sec/100m 69 1 10 00:01:27   m/hr 164 1 32 00:48:27   19.8 m/hr 121 1 11 00:00:29   8 1 1 00:22:04   7:21 min/m 113 1 18
102 Ros Goatly 285 Finished 01:19:56 4044 1 Female pactrac 00:07:42   1:55 sec/100m 82 1 11 00:00:59   m/hr 84 3 14 00:48:56   19.6 m/hr 136 3 15 00:00:50   145 5 35 00:21:26   7:08 min/m 89 1 11
104 Roland Beton 191 Finished 01:20:04 4549 13 Male Tri Force 00:08:35   2:08 sec/100m 148 15 122 00:01:31   m/hr 175 23 140 00:46:48   20.5 m/hr 86 13 80 00:01:00   206 23 153 00:22:08   7:22 min/m 114 14 96
105 Caroline Cooper 164 Finished 01:20:09 3539 3 Female   00:08:40   2:10 sec/100m 152 6 29 00:00:53   m/hr 60 2 6 00:48:47   19.7 m/hr 127 3 12 00:00:33   33 2 6 00:21:14   7:04 min/m 80 4 10
106 Andrew Booker 237 Finished 01:20:15 4044 27 Male   00:08:28   2:07 sec/100m 138 29 115 00:01:00   m/hr 89 21 74 00:46:44   20.5 m/hr 82 22 76 00:00:55   179 29 132 00:23:06   7:42 min/m 156 32 132
107 Karen Robertson 221 Finished 01:20:43 4549 2 Female Bedford Harriers 00:08:16   2:04 sec/100m 123 4 21 00:00:58   m/hr 76 2 10 00:48:11   19.9 m/hr 114 2 8 00:00:38   57 3 10 00:22:39   7:33 min/m 143 3 21
108 Andrew Robertson 183 Finished 01:20:52 5054 9 Male   00:08:47   2:11 sec/100m 160 9 129 00:01:27   m/hr 165 11 133 00:47:44   20.1 m/hr 103 12 96 00:00:31   16 1 13 00:22:22   7:27 min/m 131 10 112
109 Matt Leatham 146 Finished 01:20:56 4044 28 Male UKnetrunner 00:09:41   2:25 sec/100m 218 41 169 00:01:35   m/hr 193 36 154 00:48:19   19.9 m/hr 119 28 109 00:00:41   82 17 66 00:20:37   6:52 min/m 66 15 60
110 Colin Cripps 244 Finished 01:21:03 5054 10 Male Traktor 00:08:17   2:04 sec/100m 126 6 105 00:01:21   m/hr 154 9 123 00:44:35   21.5 m/hr 51 5 50 00:01:09   239 14 176 00:25:40   8:33 min/m 229 16 181
111 David Nicholas 96 Finished 01:21:10 4549 14 Male   00:09:48   2:27 sec/100m 223 25 173 00:01:39   m/hr 201 28 160 00:47:45   20.1 m/hr 104 15 97 00:00:38   58 8 48 00:21:18   7:06 min/m 85 8 75
112 Baptiste Galmiche 34 Finished 01:21:10 2529 8 Male Stortford Tri 00:08:53   2:13 sec/100m 169 9 135 00:01:13   m/hr 136 10 110 00:48:51   19.6 m/hr 130 11 118 00:00:44   108 7 86 00:21:28   7:09 min/m 90 9 79
113 Simon Cox 201 Finished 01:21:21 3539 14 Male Ten-Point Triathlon 00:08:29   2:07 sec/100m 139 18 116 00:01:12   m/hr 133 17 108 00:48:49   19.7 m/hr 128 16 116 00:00:58   190 24 139 00:21:51   7:17 min/m 103 12 89
114 David Wardle 340 Finished 01:21:25 5559 2 Male Hillingdon Triathlet 00:07:26   1:51 sec/100m 68 1 59 00:01:10   m/hr 123 3 101 00:46:03   20.8 m/hr 73 2 68 00:00:52   159 3 117 00:25:52   8:37 min/m 232 5 184
115 Alex Fry 251 Finished 01:21:28 2024 8 Male   00:07:27   1:51 sec/100m 70 7 60 00:01:02   m/hr 101 5 83 00:49:18   19.5 m/hr 146 9 129 00:01:19   266 13 199 00:22:19   7:26 min/m 128 8 109
116 James Maltby 363 Finished 01:21:32 1516 4 Male Bedford School Tri 00:05:39   1:24 sec/100m 5 2 4 00:00:56   m/hr 64 3 57 00:52:07   18.4 m/hr 202 5 176 00:00:27   2 1 2 00:22:20   7:26 min/m 130 5 111
117 Douglas Bowen 21 Finished 01:21:42 3539 15 Male Walden Tri 00:10:13   2:33 sec/100m 243 30 189 00:01:10   m/hr 122 16 100 00:46:47   20.5 m/hr 83 9 77 00:00:46   118 12 94 00:22:44   7:34 min/m 146 19 125
118 Alison Cooper 165 Finished 01:21:43 4549 3 Female Bedford Harriers AC 00:08:50   2:12 sec/100m 168 5 34 00:01:02   m/hr 99 5 18 00:49:11   19.5 m/hr 139 4 16 00:00:44   105 7 21 00:21:54   7:18 min/m 105 2 15
119 Daniel Holder 326 Finished 01:21:57 2529 9 Male   00:07:59   1:59 sec/100m 104 7 88 00:00:49   m/hr 51 6 47 00:51:26   18.7 m/hr 188 13 166 00:00:40   72 5 58 00:21:02   7:00 min/m 75 7 66
120 Ian Corby 278 Finished 01:22:04 5559 3 Male   00:07:51   1:57 sec/100m 93 2 81 00:00:52   m/hr 59 2 54 00:50:22   19.1 m/hr 169 5 151 00:00:47   123 2 96 00:22:10   7:23 min/m 117 1 99
121 Tim Bennett 129 Finished 01:22:05 3539 16 Male   00:08:50   2:12 sec/100m 166 20 133 00:01:29   m/hr 171 21 137 00:47:34   20.2 m/hr 99 13 93 00:00:49   141 14 108 00:23:20   7:46 min/m 164 21 136
122 David Sharman 184 Finished 01:22:08 3539 17 Male Bedford Harriers AC 00:07:57   1:59 sec/100m 101 12 86 00:00:50   m/hr 52 8 48 00:50:29   19.0 m/hr 173 23 153 00:00:53   171 18 126 00:21:58   7:19 min/m 109 13 92
123 Tim Mckeegan 95 Finished 01:22:12 2529 10 Male   00:09:59   2:29 sec/100m 229 14 178 00:01:24   m/hr 157 12 126 00:47:48   20.1 m/hr 105 8 98 00:00:47   131 10 102 00:22:13   7:24 min/m 122 10 104
124 Tom Mcpartlan 292 Finished 01:22:21 2024 9 Male   00:07:51   1:57 sec/100m 91 9 79 00:01:11   m/hr 128 9 104 00:49:16   19.5 m/hr 144 8 128 00:00:47   127 6 99 00:23:15   7:45 min/m 162 9 135
125 Michael Edmunds 86 Finished 01:22:26 4549 15 Male Tri Force 00:10:20   2:35 sec/100m 245 30 191 00:02:24   m/hr 272 37 205 00:44:43   21.5 m/hr 53 6 51 00:01:12   245 33 181 00:23:45   7:55 min/m 174 22 144
126 Aaron Cooper 200 Finished 01:22:33 2529 11 Male   00:08:58   2:14 sec/100m 176 11 141 00:02:07   m/hr 251 14 192 00:46:48   20.5 m/hr 85 7 79 00:01:00   205 13 152 00:23:40   7:53 min/m 173 13 143
127 Andy Berry 130 Finished 01:22:44 4549 16 Male   00:09:39   2:24 sec/100m 215 24 167 00:01:37   m/hr 196 26 155 00:50:06   19.2 m/hr 162 25 144 00:01:06   228 29 168 00:20:14   6:44 min/m 55 5 50
128 Heather Hobbs 207 Finished 01:22:54 4044 2 Female Triforce 00:08:23   2:05 sec/100m 131 5 23 00:01:30   m/hr 174 8 35 00:48:55   19.6 m/hr 135 2 14 00:01:08   238 13 63 00:22:55   7:38 min/m 150 5 23
129 Declan Colley 135 Finished 01:22:59 4549 17 Male   00:10:04   2:31 sec/100m 234 29 183 00:01:21   m/hr 153 19 122 00:48:57   19.6 m/hr 137 19 122 00:00:41   83 12 67 00:21:53   7:17 min/m 104 11 90
130 Will Turner 269 Finished 01:23:01 3034 15 Male   00:08:58   2:14 sec/100m 177 21 142 00:01:40   m/hr 203 20 161 00:48:38   19.7 m/hr 123 18 112 00:00:35   45 3 38 00:23:08   7:42 min/m 157 21 133
131 Steven Parrott 335 Finished 01:23:03 3034 16 Male   00:08:25   2:06 sec/100m 135 17 112 00:02:33   m/hr 278 27 209 00:48:35   19.8 m/hr 122 17 111 00:00:48   136 14 105 00:22:39   7:33 min/m 144 17 123
132 Jeremy Buss 107 Finished 01:23:06 4549 18 Male Walden Tri 00:10:00   2:30 sec/100m 231 28 180 00:00:49   m/hr 49 7 46 00:49:25   19.4 m/hr 149 21 132 00:01:20   267 35 200 00:21:31   7:10 min/m 95 9 83
133 Lee Dickinson 167 Finished 01:23:08 4044 29 Male newmarket 00:09:11   2:17 sec/100m 191 37 150 00:01:04   m/hr 106 22 87 00:49:43   19.3 m/hr 157 34 140 00:00:51   148 25 112 00:22:17   7:25 min/m 124 30 106
134 Jessica Hall 324 Finished 01:23:10 1516 1 Female   00:07:20   1:50 sec/100m 62 1 8 00:01:43   m/hr 212 2 47 00:51:40   18.6 m/hr 193 1 25 00:00:51   150 2 37 00:21:34   7:11 min/m 98 1 14
135 Iain Okane 179 Finished 01:23:13 3034 17 Male   00:08:45   2:11 sec/100m 156 18 126 00:01:15   m/hr 142 17 115 00:49:45   19.3 m/hr 158 21 141 00:00:52   157 16 115 00:22:35   7:31 min/m 138 15 119
136 Karine Ferrin 203 Finished 01:23:15 3539 4 Female Cambridge Triathlon 00:08:40   2:10 sec/100m 153 7 30 00:01:32   m/hr 181 7 37 00:51:35   18.6 m/hr 192 6 24 00:00:57   187 13 50 00:20:28   6:49 min/m 60 2 6
137 Martin Brooke 196 Finished 01:23:16 3539 18 Male Outdoor TEC 00:08:33   2:08 sec/100m 146 19 120 00:01:34   m/hr 189 25 151 00:49:41   19.3 m/hr 156 20 139 00:00:59   198 25 145 00:22:27   7:29 min/m 134 17 115
138 Stephen Allen 273 Finished 01:23:22 4044 30 Male   00:07:30   1:52 sec/100m 71 17 61 00:01:35   m/hr 191 35 153 00:49:40   19.3 m/hr 155 33 138 00:00:58   191 31 140 00:23:38   7:52 min/m 172 36 142
139 Mark Whiteside 154 Finished 01:23:26 4549 19 Male   00:09:25   2:21 sec/100m 205 20 159 00:00:45   m/hr 36 5 33 00:48:08   19.9 m/hr 112 16 105 00:00:52   158 19 116 00:24:15   8:05 min/m 187 27 154
140 Thomas Parker 296 Finished 01:23:27 3034 18 Male   00:07:10   1:47 sec/100m 49 7 44 00:01:33   m/hr 186 19 148 00:48:18   19.9 m/hr 118 16 108 00:01:08   237 23 175 00:25:16   8:25 min/m 216 27 176
141 Emma l Lyon 258 Finished 01:23:31 4044 3 Female   00:07:56   1:59 sec/100m 100 3 15 00:01:09   m/hr 118 4 21 00:50:24   19.0 m/hr 170 4 19 00:00:44   104 3 20 00:23:15   7:45 min/m 161 7 27
142 David Tarrant 126 Finished 01:23:37 4044 31 Male   00:09:22   2:20 sec/100m 201 39 156 00:01:14   m/hr 140 26 113 00:48:43   19.7 m/hr 126 29 115 00:00:53   166 28 123 00:23:24   7:48 min/m 166 33 137
143 Hannah Freeman 283 Finished 01:23:38 3539 5 Female   00:07:06   1:46 sec/100m 45 1 5 00:02:25   m/hr 274 16 69 00:51:17   18.7 m/hr 185 5 22 00:00:30   10 1 2 00:22:18   7:26 min/m 126 5 19
144 Jem Perkins 148 Finished 01:23:38 4044 32 Male   00:08:49   2:12 sec/100m 164 34 132 00:01:34   m/hr 188 33 150 00:51:07   18.8 m/hr 182 37 161 00:00:43   100 20 82 00:21:23   7:07 min/m 87 24 77
145 Tom Lousada 211 Finished 01:23:40 1516 5 Male   00:07:40   1:55 sec/100m 77 5 67 00:02:09   m/hr 256 9 196 00:50:53   18.9 m/hr 179 4 158 00:00:37   50 6 43 00:22:20   7:26 min/m 129 4 110
146 Peter Norman 178 Finished 01:23:41 5054 11 Male BedfordHarriers&BRCC 00:08:31   2:07 sec/100m 141 7 117 00:02:30   m/hr 277 17 208 00:45:00   21.3 m/hr 59 7 57 00:01:14   251 15 186 00:26:24   8:48 min/m 242 17 191
147 Simon Robbins 98 Finished 01:23:44 3034 19 Male   00:09:26   2:21 sec/100m 208 24 161 00:01:59   m/hr 240 24 184 00:46:49 +00:02:00 20.5 m/hr 88 8 82 00:00:53   165 17 122 00:22:35   7:31 min/m 139 16 120
148 Jack Lundgren 289 Finished 01:23:44 1718 3 Male Flitwick Tri 00:07:38   1:54 sec/100m 76 3 66 00:01:08   m/hr 112 2 92 00:49:05   19.6 m/hr 138 3 123 00:00:41   77 2 63 00:25:10   8:23 min/m 214 3 174
149 Russell Powell 220 Finished 01:23:45 4044 33 Male   00:08:22   2:05 sec/100m 129 25 107 00:01:46   m/hr 214 38 166 00:47:43   20.1 m/hr 102 25 95 00:00:51   149 26 113 00:25:02   8:20 min/m 211 41 172
150 Sara Orme 218 Finished 01:23:46 3034 4 Female Bedford Traktors 00:08:31   2:07 sec/100m 143 5 25 00:00:59   m/hr 85 3 15 00:50:03   19.2 m/hr 161 5 18 00:00:53   167 9 44 00:23:18   7:46 min/m 163 7 28
151 Stephen Clayton 109 Finished 01:23:52 5559 4 Male Trent Park Running C 00:08:56   2:14 sec/100m 175 4 140 00:01:51   m/hr 223 6 172 00:49:12   19.5 m/hr 140 3 124 00:01:33   283 7 208 00:22:19   7:26 min/m 127 3 108
152 Jason Lee 288 Finished 01:24:04 4044 34 Male Team MK 00:07:00   1:45 sec/100m 40 11 36 00:00:44   m/hr 33 11 30 00:46:49 +00:02:00 20.5 m/hr 87 23 81 00:01:18   263 40 196 00:26:12   8:44 min/m 240 43 190
153 Ian Speake 225 Finished 01:24:06 3034 20 Male   00:09:56   2:29 sec/100m 225 26 175 00:01:04   m/hr 105 10 86 00:48:17   19.9 m/hr 116 15 107 00:00:50   142 15 109 00:23:57   7:59 min/m 181 24 150
154 Mike Humber 329 Finished 01:24:09 3539 19 Male   00:06:55   1:43 sec/100m 33 5 29 00:01:28   m/hr 167 19 134 00:50:18   19.1 m/hr 168 22 150 00:01:06   226 29 167 00:24:22   8:07 min/m 192 23 158
155 Janet Burrows 242 Finished 01:24:10 4549 4 Female East Essex Tri 00:07:52   1:58 sec/100m 94 2 13 00:01:01   m/hr 94 4 16 00:48:54   19.6 m/hr 133 3 13 00:01:02   214 13 57 00:25:20   8:26 min/m 219 8 42
156 Matthew Padbury 120 Finished 01:24:11 3539 20 Male Bedford Traktors 00:09:25   2:21 sec/100m 206 24 160 00:01:33   m/hr 184 24 146 00:47:49   20.1 m/hr 106 15 99 00:00:53   170 17 125 00:24:28   8:09 min/m 195 24 161
157 John Kellett 210 Finished 01:24:21 4549 20 Male   00:08:12   2:03 sec/100m 114 11 96 00:01:27   m/hr 160 21 129 00:49:13   19.5 m/hr 142 20 126 00:01:05   224 28 166 00:24:22   8:07 min/m 193 29 159
158 Kevin Mcdonald 213 Finished 01:24:22 5054 12 Male 45 Road Club 00:08:54   2:13 sec/100m 172 11 137 00:02:07   m/hr 254 14 195 00:47:16   20.3 m/hr 95 11 89 00:00:57   188 10 138 00:25:06   8:22 min/m 213 14 173
159 Stuart Pagent 180 Finished 01:24:32 3539 21 Male   00:08:03   2:00 sec/100m 108 13 91 00:01:42   m/hr 209 27 164 00:50:34   19.0 m/hr 176 24 156 00:01:01   211 28 157 00:23:10   7:43 min/m 158 20 134
160 Mark Bird 131 Finished 01:24:32 3539 22 Male Gade Valley Harriers 00:08:12   2:03 sec/100m 115 14 97 00:01:15   m/hr 141 18 114 00:51:33   18.6 m/hr 190 26 168 00:01:21   272 33 203 00:22:10   7:23 min/m 116 14 98
161 Mark Lymer 174 Finished 01:24:40 4549 21 Male   00:09:26   2:21 sec/100m 209 21 162 00:02:01   m/hr 242 35 186 00:50:14   19.1 m/hr 167 26 149 00:00:32   26 3 22 00:22:25   7:28 min/m 132 15 113
162 Sean Mcaree 116 Finished 01:24:54 4549 22 Male Tri-Force 00:10:00   2:30 sec/100m 230 27 179 00:01:12   m/hr 131 17 107 00:48:52   19.6 m/hr 131 18 119 00:00:46   116 17 92 00:24:03   8:01 min/m 183 25 152
163 Jo Welbourn 307 Finished 01:25:00 2024 10 Male   00:07:16   1:49 sec/100m 57 5 50 00:01:32   m/hr 180 10 144 00:49:48   19.3 m/hr 159 10 142 00:00:52   160 7 118 00:25:30   8:30 min/m 220 12 178
164 Justin Marlin 176 Finished 01:25:02 2529 12 Male   00:07:32   1:53 sec/100m 75 5 65 00:01:01   m/hr 93 7 78 00:48:50   19.7 m/hr 129 10 117 00:00:45   112 9 89 00:26:51   8:57 min/m 250 15 198
165 James Wackrow 229 Finished 01:25:12 4044 35 Male   00:08:24   2:06 sec/100m 134 28 111 00:02:21   m/hr 268 43 202 00:52:45   18.2 m/hr 211 41 184 00:00:32   23 4 19 00:21:07   7:02 min/m 76 20 67
166 Donna Fiddeman 204 Finished 01:25:15 3034 5 Female Cambridge 00:08:31   2:07 sec/100m 140 4 24 00:01:02   m/hr 102 5 19 00:51:45   18.5 m/hr 195 6 26 00:00:41   80 2 16 00:23:13   7:44 min/m 160 6 26
167 Rachael Cottier 110 Finished 01:25:15 3034 6 Female   00:10:08   2:32 sec/100m 238 9 52 00:01:12   m/hr 132 6 25 00:48:17   19.9 m/hr 115 3 9 00:00:50   144 6 34 00:24:47   8:15 min/m 203 9 37
168 Kevin Willson 64 Finished 01:25:20 4549 23 Male   00:09:53   2:28 sec/100m 224 26 174 00:01:11   m/hr 129 16 105 00:48:43   19.7 m/hr 125 17 114 00:00:58   192 21 141 00:24:32   8:10 min/m 198 30 162
169 Nicky Bull 239 Finished 01:25:39 4549 5 Female   00:07:52   1:58 sec/100m 95 3 14 00:01:12   m/hr 134 6 26 00:51:33   18.6 m/hr 191 5 23 00:00:45   113 8 24 00:24:14   8:04 min/m 185 4 33
170 Edward Morris 217 Finished 01:25:41 3539 23 Male   00:08:16   2:04 sec/100m 125 17 104 00:01:29   m/hr 169 20 135 00:52:06   18.4 m/hr 201 27 175 00:01:18   264 31 197 00:22:30   7:30 min/m 137 18 118
171 Stuart Henderson 55 Finished 01:25:49 4044 36 Male   00:10:23   2:35 sec/100m 249 42 195 00:01:17   m/hr 146 28 118 00:49:36   19.4 m/hr 153 32 136 00:00:56   182 30 135 00:23:36   7:52 min/m 169 34 139
172 Peter Blanchard 47 Finished 01:25:58 2529 13 Male Riverside Runners 00:10:06   2:31 sec/100m 236 15 185 00:01:23   m/hr 156 11 125 00:53:30   17.9 m/hr 216 14 189 00:01:05   223 14 165 00:19:52   6:37 min/m 42 5 38
173 Marcus Lee 361 Finished 01:26:07 3034 21 Male   00:07:01   1:45 sec/100m 42 6 38 00:01:09   m/hr 116 11 96 00:51:54   18.5 m/hr 197 26 171 00:01:16   256 25 190 00:24:46   8:15 min/m 202 26 166
174 Heather Watts 231 Finished 01:26:08 4044 4 Female   00:08:36   2:09 sec/100m 149 6 27 00:00:58   m/hr 77 2 11 00:48:17   19.9 m/hr 117 1 10 00:00:55   176 8 47 00:27:20   9:06 min/m 260 15 58
175 Spencer Cartwright 368 Finished 01:26:12 1718 4 Male   00:08:06   2:01 sec/100m 110 4 93 00:01:11   m/hr 125 3 103 00:50:08   19.1 m/hr 163 4 145 00:00:42   93 4 77 00:26:04   8:41 min/m 236 4 187
176 Richard Jones 92 Finished 01:26:14 4549 24 Male   00:10:45   2:41 sec/100m 262 33 203 00:01:55   m/hr 236 34 182 00:49:35   19.4 m/hr 152 22 135 00:01:11   244 32 180 00:22:46   7:35 min/m 147 19 126
177 Kim Bainbridge 81 Finished 01:26:33 4044 5 Female   00:11:31   2:52 sec/100m 281 16 71 00:01:35   m/hr 192 9 39 00:50:26   19.0 m/hr 172 5 20 00:01:06   227 11 60 00:21:54   7:18 min/m 106 2 16
178 Archie Mutumha 333 Finished 01:26:40 3034 22 Male   00:06:55   1:43 sec/100m 34 2 30 00:01:12   m/hr 135 14 109 00:51:22   18.7 m/hr 187 24 165 00:01:02   216 20 159 00:26:06   8:42 min/m 238 28 189
179 Gary Mann 38 Finished 01:26:41 4549 25 Male Team Milton Keynes 00:11:51   2:57 sec/100m 286 36 214 00:01:08   m/hr 115 14 95 00:50:02   19.2 m/hr 160 24 143 00:01:03   217 26 160 00:22:35   7:31 min/m 140 18 121
180 Clive Trounson 62 Finished 01:26:42 4549 26 Male   00:09:29   2:22 sec/100m 210 22 163 00:01:46   m/hr 217 29 168 00:49:36   19.4 m/hr 154 23 137 00:01:00   207 24 154 00:24:50   8:16 min/m 206 31 169
181 Andrew Barber 83 Finished 01:26:46 4044 37 Male brj tri 00:08:24   2:06 sec/100m 133 27 110 00:02:04   m/hr 248 41 190 00:54:15   17.7 m/hr 221 43 192 00:00:31   20 3 17 00:21:30   7:10 min/m 93 25 81
182 Tony Brooks 160 Finished 01:26:59 5054 13 Male Cambridge Triathlon 00:09:12   2:18 sec/100m 192 13 151 00:01:00   m/hr 88 5 73 00:50:25   19.0 m/hr 171 16 152 00:01:02   215 11 158 00:25:18   8:26 min/m 218 15 177
183 Julie Lebourg 37 Finished 01:27:10 2529 2 Female Stortford Tri 00:11:20   2:50 sec/100m 278 8 70 00:02:12   m/hr 259 5 62 00:55:05   17.4 m/hr 235 3 36 00:02:10   294 8 78 00:16:21   5:27 min/m 1 1 1
184 Jonathan Dale 166 Finished 01:27:30 3034 23 Male   00:07:51   1:57 sec/100m 92 12 80 00:02:21   m/hr 269 26 203 00:51:41   18.6 m/hr 194 25 169 00:01:40   288 30 211 00:23:55   7:58 min/m 179 23 148
185 Michael Vivian 78 Finished 01:27:41 3034 24 Male   00:09:21   2:20 sec/100m 200 23 155 00:03:06   m/hr 292 29 219 00:50:53   18.9 m/hr 178 22 157 00:01:28   277 27 206 00:22:52   7:37 min/m 149 19 127
186 Alastair Grant 112 Finished 01:27:42 5054 14 Male icycle 00:10:03   2:30 sec/100m 232 14 181 00:01:27   m/hr 162 10 131 00:48:27   19.8 m/hr 120 13 110 00:01:04   220 12 162 00:26:39   8:53 min/m 247 18 196
187 Mark Turner 227 Finished 01:27:50 4044 38 Male   00:09:13   2:18 sec/100m 194 38 152 00:01:46   m/hr 216 39 167 00:51:13   18.7 m/hr 184 38 163 00:00:59   197 32 144 00:24:38   8:12 min/m 201 39 165
188 Andy Webb 189 Finished 01:27:53 5559 5 Male   00:10:23   2:35 sec/100m 248 6 194 00:01:42   m/hr 207 5 163 00:49:12   19.5 m/hr 141 4 125 00:00:52   164 4 121 00:25:41   8:33 min/m 230 4 182
189 Juliet Smith 99 Finished 01:27:57 4044 6 Female Bedford Harriers 00:09:57   2:29 sec/100m 227 11 51 00:01:11   m/hr 126 5 23 00:52:41   18.2 m/hr 209 6 27 00:01:08   236 12 62 00:22:57   7:39 min/m 151 6 24
190 Bev Hayes 90 Finished 01:28:01 3539 6 Female Bedford Harriers 00:10:46   2:41 sec/100m 264 14 60 00:01:28   m/hr 168 6 34 00:50:50   18.9 m/hr 177 4 21 00:00:49   140 9 33 00:24:06   8:02 min/m 184 9 32
191 Tom Tapper 151 Finished 01:28:06 2529 14 Male   00:09:24   2:21 sec/100m 204 12 158 00:02:54   m/hr 287 15 216 00:50:30   19.0 m/hr 175 12 155 00:00:42   86 6 70 00:24:35   8:11 min/m 199 14 163
192 Andrew Oxborough 58 Finished 01:28:11 3539 24 Male   00:10:10   2:32 sec/100m 240 28 187 00:01:37   m/hr 198 26 157 00:49:24   19.4 m/hr 148 19 131 00:00:54   173 19 127 00:26:05   8:41 min/m 237 28 188
193 Matt Leeder 345 Finished 01:28:22 3539 25 Male   00:06:30   1:37 sec/100m 16 3 14 00:01:31   m/hr 178 23 142 00:53:02   18.1 m/hr 213 28 186 00:00:40   70 8 56 00:26:37   8:52 min/m 246 29 195
194 Jacob Stephenson 364 Finished 01:28:29 1516 6 Male Bedford School Tri C 00:06:11   1:32 sec/100m 14 3 12 00:01:15   m/hr 144 5 116 00:54:32   17.6 m/hr 223 7 193 00:00:33   32 4 27 00:25:56   8:38 min/m 233 6 185
195 Warren Brearley 195 Finished 01:28:36 5054 15 Male   00:08:54   2:13 sec/100m 173 12 138 00:01:33   m/hr 187 13 149 00:50:11 +00:02:00 19.1 m/hr 165 15 147 00:01:06   231 13 171 00:24:49   8:16 min/m 205 13 168
196 Jason Theobald 100 Finished 01:28:56 4044 39 Male   00:09:30   2:22 sec/100m 211 40 164 00:02:17   m/hr 265 42 199 00:52:20   18.3 m/hr 206 39 180 00:01:10   242 36 179 00:23:37   7:52 min/m 170 35 140
197 Alan Fullard 111 Finished 01:28:59 3034 25 Male none 00:08:46   2:11 sec/100m 158 19 127 00:01:43   m/hr 210 21 165 00:50:59   18.8 m/hr 181 23 160 00:01:05   222 22 164 00:26:25   8:48 min/m 244 29 193
198 Samantha Balis 128 Finished 01:29:01 3539 7 Female Bedford Harriers 00:09:08   2:17 sec/100m 186 8 40 00:00:56   m/hr 65 3 8 00:54:56   17.5 m/hr 232 9 33 00:00:38   60 4 12 00:23:22   7:47 min/m 165 6 29
199 Gareth Davies 247 Finished 01:29:01 3539 26 Male Team MK 00:07:42   1:55 sec/100m 81 9 71 00:01:02   m/hr 103 14 84 00:51:11   18.8 m/hr 183 25 162 00:00:56   186 23 137 00:28:07   9:22 min/m 270 31 207
200 Paul Regnier 75 Finished 01:29:10 3539 27 Male   00:09:58   2:29 sec/100m 228 26 177 00:02:26   m/hr 275 34 206 00:50:12   19.1 m/hr 166 21 148 00:01:18   262 30 195 00:25:14   8:24 min/m 215 26 175
201 Peter Wicks 232 Finished 01:29:24 2529 15 Male   00:08:56   2:14 sec/100m 174 10 139 00:01:29   m/hr 170 13 136 00:54:54   17.5 m/hr 231 15 199 00:00:58   193 12 142 00:23:05   7:41 min/m 155 12 131
202 Bob Johnston 330 Finished 01:29:27 4549 27 Male   00:06:45   1:41 sec/100m 26 3 23 00:01:27   m/hr 161 22 130 00:56:11   17.1 m/hr 244 36 203 00:01:05   221 27 163 00:23:58   7:59 min/m 182 24 151
203 Daniel Brown 312 Finished 01:29:45 2024 11 Male RG Active 00:08:01   2:00 sec/100m 106 10 89 00:01:06   m/hr 109 7 90 00:52:02   18.4 m/hr 199 11 173 00:00:55   180 8 133 00:27:38   9:12 min/m 264 14 204
204 Daniel Barron 105 Finished 01:29:45 3034 26 Male   00:10:20   2:35 sec/100m 246 28 192 00:01:11   m/hr 124 13 102 00:55:17   17.4 m/hr 237 30 201 00:00:55   178 18 131 00:22:00   7:20 min/m 110 12 93
205 Sarah Hearn 170 Finished 01:29:47 3539 8 Female Bedford Harriers 00:09:15   2:18 sec/100m 195 9 43 00:00:59   m/hr 81 4 13 00:54:56   17.5 m/hr 233 10 34 00:00:47   122 7 27 00:23:48   7:56 min/m 176 8 31
206 David Jenkins 256 Finished 01:29:47 4549 28 Male   00:10:38   2:39 sec/100m 258 32 200 00:01:33   m/hr 182 25 145 00:51:19   18.7 m/hr 186 27 164 00:01:25   276 37 205 00:24:50   8:16 min/m 207 32 170
207 Jean-paul Petranca 14 Finished 01:29:47 3034 27 Male   00:07:58   1:59 sec/100m 102 14 87 00:04:40   m/hr 303 31 224 00:53:20   18.0 m/hr 214 27 187 00:00:47   121 11 95 00:23:01   7:40 min/m 153 20 129
208 Paul Coombes 163 Finished 01:29:49 4549 29 Male   00:08:31   2:07 sec/100m 142 14 118 00:01:26   m/hr 158 20 127 00:52:40   18.2 m/hr 208 32 182 00:01:21   271 36 202 00:25:49   8:36 min/m 231 33 183
209 Elaine Wildman 233 Finished 01:30:20 4044 7 Female   00:07:58   1:59 sec/100m 103 4 16 00:00:57   m/hr 73 1 9 00:54:50   17.5 m/hr 230 8 32 00:01:01   212 10 55 00:25:31   8:30 min/m 221 8 43
210 Phil Hunt 145 Finished 01:30:20 4044 40 Male   00:08:49   2:12 sec/100m 162 33 130 00:03:44   m/hr 299 46 222 00:52:42   18.2 m/hr 210 40 183 00:02:37   298 45 219 00:22:27   7:29 min/m 135 31 116
211 David Laing 35 Finished 01:30:24 3539 28 Male Havana Club 00:10:12   2:33 sec/100m 241 29 188 00:02:19   m/hr 266 33 200 00:48:54   19.6 m/hr 132 17 120 00:00:54   174 20 128 00:28:04   9:21 min/m 269 30 206
212 Antonia Phillips 97 Finished 01:31:10 4044 8 Female   00:12:25   3:06 sec/100m 294 18 75 00:01:42   m/hr 208 12 45 00:53:35   17.9 m/hr 217 7 28 00:00:48   134 4 31 00:22:38   7:32 min/m 141 4 20
213 Mike Primavesi 122 Finished 01:31:14 6064 1 Male pactrac 00:09:43   2:25 sec/100m 220 1 171 00:01:27   m/hr 163 1 132 00:51:27   18.7 m/hr 189 1 167 00:00:56   184 1 136 00:27:40   9:13 min/m 265 1 205
214 Paula Blizard 193 Finished 01:31:33 4549 6 Female Bedford Harriers 00:08:59   2:14 sec/100m 178 6 36 00:01:20   m/hr 151 8 31 00:55:59   17.1 m/hr 242 6 40 00:00:42   94 5 17 00:24:30   8:10 min/m 197 6 36
215 Christine Delaney 319 Finished 01:31:34 3034 7 Female   00:07:12   1:48 sec/100m 52 2 7 00:02:11   m/hr 258 10 61 01:00:05   16.0 m/hr 273 10 59 00:00:37   51 1 8 00:21:28   7:09 min/m 92 4 12
216 Peter Barnett 10 Finished 01:31:41 4044 41 Male   00:10:38   2:39 sec/100m 256 44 199 00:03:41   m/hr 297 45 221 00:50:56   18.8 m/hr 180 36 159 00:01:58   293 44 216 00:24:26   8:08 min/m 194 37 160
217 Chris Brolly 67 Finished 01:31:47 5054 16 Male Stortford Tri 00:10:22   2:35 sec/100m 247 15 193 00:02:40   m/hr 283 18 212 00:56:51   16.9 m/hr 248 18 205 00:00:31   17 2 14 00:21:20   7:06 min/m 86 7 76
218 Janet Ling 19 Finished 01:31:50 3539 9 Female   00:10:56   2:44 sec/100m 267 15 62 00:02:06   m/hr 250 13 59 00:54:34   17.6 m/hr 224 8 31 00:00:43   97 6 18 00:23:30   7:50 min/m 168 7 30
219 Andy Newing 74 Finished 01:31:52 4549 30 Male Gade Valley Harriers 00:11:45   2:56 sec/100m 285 35 213 00:01:54   m/hr 233 33 180 00:54:02   17.8 m/hr 220 34 191 00:01:08   235 31 174 00:23:02   7:40 min/m 154 20 130
220 Andrew Wood 17 Finished 01:31:53 4549 31 Male   00:13:25   3:21 sec/100m 297 39 221 00:01:39   m/hr 200 27 159 00:52:00   18.5 m/hr 198 29 172 00:00:28   5 1 5 00:24:19   8:06 min/m 189 28 155
221 Chris Wright 65 Finished 01:31:59 5054 17 Male FlitwickTri 00:12:05   3:01 sec/100m 288 18 215 00:02:09   m/hr 257 15 197 00:52:06   18.4 m/hr 200 17 174 00:01:18   259 16 193 00:24:19   8:06 min/m 190 12 156
222 Laura Clack 314 Finished 01:32:01 2529 3 Female tyne rowing club 00:07:10   1:47 sec/100m 51 3 6 00:01:07   m/hr 111 2 20 00:54:23   17.7 m/hr 222 2 30 00:00:58   196 4 53 00:28:20   9:26 min/m 274 6 64
223 Jo Aatkar 80 Finished 01:32:06 4044 9 Female   00:09:01   2:15 sec/100m 180 9 38 00:02:22   m/hr 270 16 67 00:58:15   16.5 m/hr 260 12 52 00:00:31   15 1 3 00:21:55   7:18 min/m 108 3 17
224 Adrian Shaw 60 Finished 01:32:16 4549 32 Male   00:11:41   2:55 sec/100m 283 34 211 00:01:31   m/hr 176 24 141 00:51:46   18.5 m/hr 196 28 170 00:01:17   257 34 191 00:25:59   8:39 min/m 234 34 186
225 Robert Evans 202 Finished 01:32:46 1516 7 Male Bedford School Tri 00:08:12   2:03 sec/100m 116 6 98 00:01:57   m/hr 239 7 183 00:55:36   17.3 m/hr 239 8 202 00:00:34   41 5 35 00:26:24   8:48 min/m 243 7 192
226 Steve Bassington 84 Finished 01:32:54 3539 29 Male   00:10:17   2:34 sec/100m 244 31 190 00:00:57   m/hr 68 11 60 00:55:10   17.4 m/hr 236 29 200 00:00:50   147 15 111 00:25:39   8:33 min/m 226 27 180
227 Stephen Waters 102 Finished 01:32:58 2024 12 Male   00:10:45   2:41 sec/100m 261 13 202 00:01:54   m/hr 234 11 181 00:52:08   18.4 m/hr 203 12 177 00:01:17   258 12 192 00:26:52   8:57 min/m 251 13 199
228 Nicola Daley 246 Finished 01:33:02 4044 10 Female   00:07:49   1:57 sec/100m 88 2 12 00:01:28   m/hr 166 7 33 00:57:03   16.8 m/hr 250 10 45 00:00:39   64 2 13 00:26:02   8:40 min/m 235 12 49
229 Iain Peddie 41 Finished 01:33:05 3034 28 Male   00:11:21   2:50 sec/100m 279 29 209 00:02:00   m/hr 241 25 185 00:54:41   17.6 m/hr 229 29 198 00:00:42   85 8 69 00:24:20   8:06 min/m 191 25 157
230 Tracey Patmore 349 Finished 01:33:15 4044 11 Female Nice Tri 00:09:00   2:15 sec/100m 179 8 37 00:01:15   m/hr 143 6 28 00:55:56   17.2 m/hr 241 9 39 00:01:29   279 16 73 00:25:33   8:31 min/m 224 11 46
231 Susie Ivin 172 Finished 01:33:19 3034 8 Female Gade Valley Harriers 00:09:23   2:20 sec/100m 202 8 46 00:01:19   m/hr 149 7 29 00:58:56   16.3 m/hr 265 7 55 00:00:48   133 5 30 00:22:52   7:37 min/m 148 5 22
232 Gavin Smith 224 Finished 01:33:46 4549 33 Male   00:09:35   2:23 sec/100m 213 23 165 00:01:20   m/hr 152 18 121 00:52:19   18.3 m/hr 204 30 178 00:01:07   233 30 173 00:29:23   9:47 min/m 280 37 213
233 Russell Parsonage 27 Finished 01:33:51 4044 42 Male Clapham Barbarians 00:12:06   3:01 sec/100m 289 46 216 00:02:03   m/hr 246 40 188 00:52:49   18.2 m/hr 212 42 185 00:01:13   250 38 185 00:25:37   8:32 min/m 225 42 179
234 Sonia Metherell 118 Finished 01:33:51 3539 10 Female Bedford Harriers 00:10:26   2:36 sec/100m 251 12 56 00:02:13   m/hr 262 14 65 00:54:00   17.8 m/hr 219 7 29 00:00:53   172 11 46 00:26:17   8:45 min/m 241 11 51
235 Nick Harmon 3 Finished 01:33:52 5054 18 Male   00:17:15   4:18 sec/100m 302 19 223 00:02:19   m/hr 267 16 201 00:50:10   19.1 m/hr 164 14 146 00:02:21   296 18 217 00:21:45   7:15 min/m 102 9 88
236 Margaret Whiteley 270 Finished 01:34:03 5559 1 Female   00:08:18   2:04 sec/100m 127 1 22 00:01:55   m/hr 235 2 54 00:55:25   17.3 m/hr 238 1 37 00:00:44   107 1 22 00:27:40   9:13 min/m 266 1 61
237 Ray Charlton 52 Finished 01:34:08 4549 34 Male   00:10:27   2:36 sec/100m 252 31 196 00:02:05   m/hr 249 36 191 00:53:57   17.8 m/hr 218 33 190 00:00:38   62 9 50 00:26:58   8:59 min/m 253 36 201
238 Gayle Burridge 241 Finished 01:34:18 3539 11 Female   00:08:14   2:03 sec/100m 119 3 19 00:01:57   m/hr 237 12 55 00:55:03   17.4 m/hr 234 11 35 00:01:33   284 17 76 00:27:29   9:09 min/m 263 14 60
239 Lynne Greenard 143 Finished 01:34:26 6064 1 Female Bedford Harriers 00:09:40   2:25 sec/100m 216 1 49 00:01:57   m/hr 238 1 56 00:56:07   17.1 m/hr 243 1 41 00:01:00   208 1 54 00:25:40   8:33 min/m 227 1 47
240 Shaun Stevens 125 Finished 01:34:55 3034 29 Male   00:10:05   2:31 sec/100m 235 27 184 00:01:49   m/hr 220 22 170 00:54:38   17.6 m/hr 227 28 196 00:01:35   287 29 210 00:26:46   8:55 min/m 249 30 197
241 Rachel Humber 209 Finished 01:35:09 3034 9 Female   00:08:45   2:11 sec/100m 157 6 31 00:01:46   m/hr 215 8 49 00:59:22   16.2 m/hr 267 8 56 00:00:46   119 3 25 00:24:28   8:09 min/m 196 8 35
242 Liam Henderson 56 Finished 01:35:14 1516 8 Male   00:09:57   2:29 sec/100m 226 10 176 00:02:07   m/hr 253 8 194 00:52:19   18.3 m/hr 205 6 179 00:00:31   19 3 16 00:30:18   10:06 min/m 283 9 214
243 James Dempsey 54 Finished 01:35:19 2024 13 Male   00:12:24   3:06 sec/100m 293 14 219 00:02:07   m/hr 252 12 193 00:58:52   16.3 m/hr 264 13 210 00:00:37   53 4 44 00:21:17   7:05 min/m 82 7 72
244 Dawn Limbert 72 Finished 01:35:31 4549 7 Female Trent Park 00:10:51   2:42 sec/100m 265 8 61 00:01:19   m/hr 150 7 30 00:57:58   16.6 m/hr 257 10 49 00:01:03   218 14 58 00:24:17   8:05 min/m 188 5 34
245 Jonathan Wilson 156 Finished 01:35:48 5559 6 Male BCTTT 00:10:04   2:31 sec/100m 233 5 182 00:01:40   m/hr 205 4 162 00:54:38   17.6 m/hr 226 6 195 00:01:12   247 6 182 00:28:12   9:24 min/m 271 6 208
246 Isobel Duxfield 280 Finished 01:35:56 1516 2 Female   00:08:09   2:02 sec/100m 113 2 18 00:01:33   m/hr 183 1 38 01:00:39   15.8 m/hr 279 2 63 00:00:33   28 1 5 00:25:01   8:20 min/m 210 2 39
247 Jamie Sinclair 124 Finished 01:36:08 3539 30 Male   00:09:05   2:16 sec/100m 184 21 145 00:01:01   m/hr 90 12 75 01:00:04   16.0 m/hr 272 32 214 00:01:00   204 27 151 00:24:56   8:18 min/m 208 25 171
248 Ian Williams 63 Finished 01:36:19 3539 31 Male   00:11:08   2:47 sec/100m 275 34 208 00:01:52   m/hr 228 30 177 00:58:48   16.3 m/hr 262 31 209 00:00:44   103 11 84 00:23:45   7:55 min/m 175 22 145
249 Helen Roberts 336 Finished 01:36:32 2529 4 Female   00:06:50   1:42 sec/100m 28 2 4 00:02:24   m/hr 273 6 68 01:03:06   15.2 m/hr 287 7 69 00:00:58   194 3 52 00:23:11   7:43 min/m 159 3 25
250 Martin Cullen 53 Finished 01:36:45 4044 43 Male Trent Park 00:11:24   2:51 sec/100m 280 45 210 00:01:17   m/hr 147 29 119 01:01:24   15.6 m/hr 284 45 218 00:00:30   9 2 8 00:22:08   7:22 min/m 115 28 97
251 Kate Barnard 104 Finished 01:36:52 4044 12 Female Bedford Harriers AC 00:10:39   2:39 sec/100m 259 13 59 00:01:36   m/hr 195 10 41 00:58:13   16.5 m/hr 259 11 51 00:00:51   151 6 38 00:25:31   8:30 min/m 222 9 44
252 Louise Baker 82 Finished 01:37:01 4549 8 Female Stortford Tri 00:11:16   2:49 sec/100m 277 11 69 00:00:58   m/hr 78 3 12 00:57:13   16.8 m/hr 251 8 46 00:00:49   137 10 32 00:26:43   8:54 min/m 248 10 52
253 David Pearce 59 Finished 01:37:06 5559 7 Male Dunmow Tri 00:10:52   2:43 sec/100m 266 7 205 00:01:52   m/hr 229 7 178 00:54:40   17.6 m/hr 228 7 197 00:01:00   209 5 155 00:28:39   9:33 min/m 276 7 211
254 Mark Girven 140 Finished 01:37:36 2024 14 Male   00:08:14   2:03 sec/100m 120 12 101 00:03:46   m/hr 300 14 223 01:00:23   15.9 m/hr 275 14 215 00:01:16   254 11 188 00:23:56   7:58 min/m 180 11 149
255 Neil Ward 152 Finished 01:37:52 4549 35 Male   00:09:20   2:20 sec/100m 199 19 154 00:02:56   m/hr 288 40 217 00:56:38   17.0 m/hr 246 37 204 00:05:19   300 39 221 00:23:37   7:52 min/m 171 21 141
256 Rachel Brooke 51 Finished 01:37:55 3539 12 Female Outdoor TEC 00:10:35   2:38 sec/100m 255 13 57 00:02:14   m/hr 263 15 66 00:56:47   16.9 m/hr 247 12 43 00:00:57   189 14 51 00:27:20   9:06 min/m 259 12 57
257 Sarah Farrell 69 Finished 01:38:27 2529 5 Female   00:08:49   2:12 sec/100m 161 4 32 00:01:10   m/hr 121 3 22 00:55:46   17.2 m/hr 240 4 38 00:01:21   269 6 69 00:31:19   10:26 min/m 289 8 74
258 Glen Head 169 Finished 01:38:37 4044 44 Male   00:08:07   2:01 sec/100m 111 24 94 00:01:33   m/hr 185 32 147 00:59:15   16.2 m/hr 266 44 211 00:00:37   54 13 45 00:29:02   9:40 min/m 277 44 212
259 Jo Parker 121 Finished 01:38:37 5559 2 Female Team MK 00:09:10   2:17 sec/100m 189 2 41 00:01:13   m/hr 137 1 27 00:56:29   17.0 m/hr 245 2 42 00:01:21   268 2 68 00:30:23   10:07 min/m 284 2 70
260 Sacha Cole 199 Finished 01:38:41 4044 13 Female   00:08:38   2:09 sec/100m 151 7 28 00:02:01   m/hr 243 14 57 01:00:56   15.8 m/hr 281 14 65 00:01:31   281 17 74 00:25:33   8:31 min/m 223 10 45
261 Sarah Shephard 15 Finished 01:39:33 4549 9 Female   00:12:22   3:05 sec/100m 292 12 74 00:03:33   m/hr 294 14 75 00:57:28   16.7 m/hr 253 9 47 00:00:51   153 11 39 00:25:17   8:25 min/m 217 7 41
262 Colin Partridge 28 Finished 01:39:34 4549 36 Male   00:12:18   3:04 sec/100m 291 38 218 00:01:50   m/hr 222 31 171 01:00:33   15.9 m/hr 277 38 216 00:00:37   55 7 46 00:24:14   8:04 min/m 186 26 153
263 Tristan Walker 187 Finished 01:39:45 1718 5 Male Bedford School Tri 00:09:08   2:17 sec/100m 187 5 147 00:02:16   m/hr 264 5 198 01:00:03   16.0 m/hr 271 5 213 00:01:06   230 5 170 00:27:09   9:03 min/m 257 5 202
264 Megan Welbourn 79 Finished 01:39:53 2024 2 Female   00:09:12   2:18 sec/100m 193 2 42 00:02:12   m/hr 260 2 63 01:00:24   15.9 m/hr 276 2 61 00:01:01   213 2 56 00:27:02   9:00 min/m 254 2 53
265 Jack Rice 150 Finished 01:40:06 1516 9 Male Bedford School 00:09:24   2:21 sec/100m 203 8 157 00:02:58   m/hr 289 10 218 00:59:33   16.1 m/hr 269 9 212 00:00:42   88 7 72 00:27:28   9:09 min/m 261 8 203
266 Jane Meggitt 25 Finished 01:40:13 4549 10 Female Cambridge tri club 00:14:01   3:30 sec/100m 300 15 79 00:01:43   m/hr 211 10 46 00:58:11   16.5 m/hr 258 11 50 00:00:37   52 2 9 00:25:40   8:33 min/m 228 9 48
267 Nick Holland 208 Finished 01:40:16 4549 37 Male   00:08:26   2:06 sec/100m 136 13 113 00:02:45   m/hr 284 39 213 00:52:27   18.3 m/hr 207 31 181 00:02:38   299 38 220 00:33:58   11:19 min/m 297 39 219
268 Peter Bramley 50 Finished 01:40:20 6569 1 Male   00:11:04   2:46 sec/100m 273 1 207 00:01:52   m/hr 227 1 176 00:53:27   18.0 m/hr 215 1 188 00:00:42   89 1 73 00:33:13   11:04 min/m 295 1 217
269 Claire Grady 141 Finished 01:40:29 3539 13 Female   00:09:48   2:27 sec/100m 222 10 50 00:01:39   m/hr 202 8 42 00:58:48   16.3 m/hr 263 15 54 00:00:56   185 12 49 00:29:16   9:45 min/m 279 15 67
270 Shane Roberts 29 Finished 01:40:54 4549 38 Male Traktors 00:12:06   3:01 sec/100m 290 37 217 00:01:51   m/hr 224 32 173 00:54:37   17.6 m/hr 225 35 194 00:00:53   169 20 124 00:31:26   10:28 min/m 291 38 216
271 Tom Gort 88 Finished 01:41:01 5054 19 Male Trent Park 00:11:02   2:45 sec/100m 270 17 206 00:02:47   m/hr 285 19 214 00:57:47   16.6 m/hr 255 19 208 00:02:27   297 19 218 00:26:57   8:59 min/m 252 19 200
272 Erika Bosman 48 Finished 01:41:10 3539 14 Female   00:11:16   2:49 sec/100m 276 16 68 00:02:35   m/hr 279 17 70 01:01:09   15.7 m/hr 282 16 66 00:01:05   225 15 59 00:25:03   8:21 min/m 212 10 40
273 Sue Gipson 139 Finished 01:41:32 5054 2 Female   00:09:04   2:16 sec/100m 183 1 39 00:03:22   m/hr 293 3 74 01:00:44   15.8 m/hr 280 2 64 00:01:12   246 2 65 00:27:09   9:03 min/m 256 2 55
274 AnaÔs Reding 149 Finished 01:41:40 2529 6 Female   00:09:25   2:21 sec/100m 207 6 47 00:02:59   m/hr 290 7 72 00:59:23   16.2 m/hr 268 5 57 00:01:15   253 5 66 00:28:36   9:32 min/m 275 7 65
275 Kelly Swannell 31 Finished 01:42:05 3539 15 Female   00:13:38   3:24 sec/100m 299 17 78 00:01:48   m/hr 218 10 50 00:57:50   16.6 m/hr 256 13 48 00:01:18   261 16 67 00:27:29   9:09 min/m 262 13 59
276 Niki Harris 89 Finished 01:42:06 3539 16 Female   00:10:26   2:36 sec/100m 250 11 55 00:01:40   m/hr 204 9 43 00:58:20   16.5 m/hr 261 14 53 00:00:52   162 10 43 00:30:47   10:15 min/m 286 16 72
277 Patricia Watson-miller 230 Finished 01:42:24 4549 11 Female   00:10:12   2:33 sec/100m 242 7 54 00:01:36   m/hr 194 9 40 00:56:58   16.9 m/hr 249 7 44 00:00:47   124 9 28 00:32:49   10:56 min/m 293 14 77
278 Nicola Dangerfield 137 Finished 01:42:25 2529 7 Female   00:08:54   2:13 sec/100m 170 5 35 00:01:31   m/hr 177 4 36 01:06:09   14.5 m/hr 295 8 76 00:00:50   146 2 36 00:25:00   8:20 min/m 209 4 38
279 Eleanor Cowan 136 Finished 01:42:54 4044 14 Female Stortford Tri 00:10:38   2:39 sec/100m 257 12 58 00:02:13   m/hr 261 15 64 01:02:19   15.4 m/hr 286 15 68 00:01:34   285 18 77 00:26:07   8:42 min/m 239 13 50
280 Rachel Bramley 159 Finished 01:43:09 3034 10 Female   00:10:10   2:32 sec/100m 239 10 53 00:02:02   m/hr 244 9 58 00:59:53   16.0 m/hr 270 9 58 00:01:07   234 10 61 00:29:55   9:58 min/m 282 10 69
281 Tony Coupland 11 Finished 01:43:19 3034 30 Male Ariel 00:11:44   2:56 sec/100m 284 30 212 00:03:39   m/hr 296 30 220 00:57:42   16.6 m/hr 254 31 207 00:01:56   291 31 214 00:28:17   9:25 min/m 272 31 209
282 Sandra Stanton 77 Finished 01:44:01 4549 12 Female   00:12:59   3:14 sec/100m 296 13 76 00:02:08   m/hr 255 12 60 01:00:09   16.0 m/hr 274 12 60 00:00:53   168 12 45 00:27:51   9:17 min/m 267 11 62
283 Tim Gardiner 138 Finished 01:44:33 3539 32 Male TriTalk.co.uk 00:09:15   2:18 sec/100m 196 23 153 00:00:38   m/hr 17 5 16 00:57:24   16.7 m/hr 252 30 206 00:01:21   270 32 201 00:35:53   11:57 min/m 300 34 221
284 Jakie Livings 115 Finished 01:44:55 4044 15 Female Freedom Tri 00:09:20   2:20 sec/100m 198 10 45 00:01:50   m/hr 221 13 51 01:00:38   15.8 m/hr 278 13 62 00:00:56   183 9 48 00:32:10   10:43 min/m 292 18 76
285 Amy Golding 2 Finished 01:45:01 2529 8 Female   00:11:00   2:45 sec/100m 268 7 63 00:03:42   m/hr 298 8 77 01:01:47   15.5 m/hr 285 6 67 00:01:25   275 7 71 00:27:06   9:02 min/m 255 5 54
286 Jason Murphy 73 Finished 01:46:00 3539 33 Male FlitwickTri 00:10:43   2:40 sec/100m 260 32 201 00:02:04   m/hr 247 32 189 01:01:18   15.7 m/hr 283 33 217 00:01:00   202 26 149 00:30:54   10:18 min/m 288 33 215
287 Deb Binks 32 Finished 01:47:06 4044 16 Female Stortford Tri 00:11:00   2:45 sec/100m 269 14 64 00:01:41   m/hr 206 11 44 01:04:04   15.0 m/hr 289 16 71 00:01:11   243 14 64 00:29:08   9:42 min/m 278 16 66
288 Sarah Barwood 66 Finished 01:47:10 4549 13 Female   00:13:33   3:23 sec/100m 298 14 77 00:01:45   m/hr 213 11 48 01:03:10   15.2 m/hr 288 13 70 00:00:40   68 4 14 00:28:00   9:20 min/m 268 12 63
289 Pauline Stroud 30 Finished 01:49:39 5054 3 Female stortfordtri 00:11:33   2:53 sec/100m 282 4 72 00:01:54   m/hr 232 2 53 01:04:11   15.0 m/hr 290 3 72 00:01:31   282 4 75 00:30:29   10:09 min/m 285 3 71
290 Pete Jones 12 Finished 01:51:16 4549 39 Male Flitwick Tri 00:15:13   3:48 sec/100m 301 40 222 00:02:28   m/hr 276 38 207 01:06:27   14.4 m/hr 296 39 220 00:00:40   69 10 55 00:26:26   8:48 min/m 245 35 194
291 Alison Horner 6 Finished 01:52:14 4549 14 Female   00:11:03   2:45 sec/100m 272 9 66 00:03:35   m/hr 295 15 76 01:05:30   14.7 m/hr 293 14 74 00:00:43   101 6 19 00:31:21   10:27 min/m 290 13 75
292 Holly Barnard 1 Finished 01:52:15 5054 4 Female Tractors triathlon 00:09:34   2:23 sec/100m 212 3 48 00:03:59   m/hr 302 4 79 01:04:18   14.9 m/hr 291 4 73 00:01:28   278 3 72 00:32:55   10:58 min/m 294 4 78
293 Christina Lugsden 173 Finished 01:52:27 3539 17 Female   00:08:32   2:08 sec/100m 144 5 26 00:01:52   m/hr 230 11 52 01:10:33   13.6 m/hr 298 17 78 00:00:41   78 5 15 00:30:48   10:16 min/m 287 17 73
294 Jane O'flanagan 40 Finished 01:53:18 4044 17 Female   00:11:03   2:45 sec/100m 271 15 65 00:03:49   m/hr 301 18 78 01:07:10   14.3 m/hr 297 17 77 00:01:24   274 15 70 00:29:51   9:57 min/m 281 17 68
295 Lisa Hiemstra 4 Finished 01:53:42 4044 18 Female NHRR 00:11:57   2:59 sec/100m 287 17 73 00:03:00   m/hr 291 17 73 01:10:33   13.6 m/hr 299 18 79 00:00:51   156 7 42 00:27:19   9:06 min/m 258 14 56
296 Robert Bendle 18 Finished 01:55:58 7074 1 Male   00:12:59   3:14 sec/100m 295 1 220 00:02:23   m/hr 271 1 204 01:04:33   14.9 m/hr 292 1 219 00:01:12   248 1 183 00:34:50   11:36 min/m 298 1 220
297 Ann Shrimpton 61 Finished 01:57:53 4549 15 Female Team Milton Keynes 00:11:08   2:47 sec/100m 274 10 67 00:02:36   m/hr 281 13 71 01:06:03   14.5 m/hr 294 15 75 00:02:20   295 15 79 00:35:45   11:55 min/m 299 15 79
298 Tony Harvey 70 Finished 02:02:36 3539 34 Male Freedom Tri 00:09:43   2:25 sec/100m 219 25 170 00:02:03   m/hr 245 31 187 01:20:32   11.9 m/hr 301 34 222 00:01:57   292 34 215 00:28:19   9:26 min/m 273 32 210
299 Robert Taylor 44 Finished 02:06:58 4044 45 Male   00:10:33   2:38 sec/100m 253 43 197 00:02:40   m/hr 282 44 211 01:18:42   12.2 m/hr 300 46 221 00:01:09   240 35 177 00:33:52   11:17 min/m 296 45 218
300 Kieron Edwards 168 Finished 09:38:37 3034 31 Male   08:26:13   6:33 sec/100m 303 31 224 00:01:17   m/hr 148 18 120 00:48:09   19.9 m/hr 113 14 106 00:00:38   63 5 51 00:22:17   7:25 min/m 125 14 107
  Lucie Carrington 197 Withdrawn during race   5054   Female   00:11:31   2:52 sec/100m       00:02:34   m/hr